sensor_id;sensor_type;location;lat;lon;timestamp;temperature;humidity
20319;DHT22;10317;47.254;11.314;2022-10-16T00:01:30;9.80;99.90
20319;DHT22;10317;47.254;11.314;2022-10-16T00:03:57;9.80;99.90
20319;DHT22;10317;47.254;11.314;2022-10-16T00:06:24;9.80;99.90
20319;DHT22;10317;47.254;11.314;2022-10-16T00:08:50;9.80;99.90
20319;DHT22;10317;47.254;11.314;2022-10-16T00:11:19;9.80;99.90
20319;DHT22;10317;47.254;11.314;2022-10-16T00:13:45;9.80;99.90
20319;DHT22;10317;47.254;11.314;2022-10-16T00:16:12;9.70;99.90
20319;DHT22;10317;47.254;11.314;2022-10-16T00:18:39;9.70;99.90
20319;DHT22;10317;47.254;11.314;2022-10-16T00:21:08;9.70;99.90
20319;DHT22;10317;47.254;11.314;2022-10-16T00:23:35;9.70;99.90
20319;DHT22;10317;47.254;11.314;2022-10-16T00:26:03;9.70;99.90
20319;DHT22;10317;47.254;11.314;2022-10-16T00:28:30;9.80;99.90
20319;DHT22;10317;47.254;11.314;2022-10-16T00:30:56;9.80;99.90
20319;DHT22;10317;47.254;11.314;2022-10-16T00:33:22;9.80;99.90
20319;DHT22;10317;47.254;11.314;2022-10-16T00:35:48;9.80;99.90
20319;DHT22;10317;47.254;11.314;2022-10-16T00:38:14;9.80;99.90
20319;DHT22;10317;47.254;11.314;2022-10-16T00:40:40;9.80;99.90
20319;DHT22;10317;47.254;11.314;2022-10-16T00:43:14;9.90;99.90
20319;DHT22;10317;47.254;11.314;2022-10-16T00:45:57;9.90;99.90
20319;DHT22;10317;47.254;11.314;2022-10-16T00:48:23;9.90;99.90
20319;DHT22;10317;47.254;11.314;2022-10-16T00:50:49;9.80;99.90
20319;DHT22;10317;47.254;11.314;2022-10-16T00:53:14;9.90;99.90
20319;DHT22;10317;47.254;11.314;2022-10-16T00:55:41;9.90;99.90
20319;DHT22;10317;47.254;11.314;2022-10-16T00:58:07;9.90;99.90
20319;DHT22;10317;47.254;11.314;2022-10-16T01:00:33;9.90;99.90
20319;DHT22;10317;47.254;11.314;2022-10-16T01:03:01;9.90;99.90
20319;DHT22;10317;47.254;11.314;2022-10-16T01:05:35;10.00;99.90
20319;DHT22;10317;47.254;11.314;2022-10-16T01:08:17;9.90;99.90
20319;DHT22;10317;47.254;11.314;2022-10-16T01:10:46;9.90;99.90
20319;DHT22;10317;47.254;11.314;2022-10-16T01:13:18;9.90;99.90
20319;DHT22;10317;47.254;11.314;2022-10-16T01:16:09;9.80;99.90
20319;DHT22;10317;47.254;11.314;2022-10-16T01:18:52;9.80;99.90
20319;DHT22;10317;47.254;11.314;2022-10-16T01:21:24;9.80;99.90
20319;DHT22;10317;47.254;11.314;2022-10-16T01:29:30;9.80;99.90
20319;DHT22;10317;47.254;11.314;2022-10-16T01:32:05;9.80;99.90
20319;DHT22;10317;47.254;11.314;2022-10-16T01:34:37;9.80;99.90
20319;DHT22;10317;47.254;11.314;2022-10-16T01:37:11;9.80;99.90
20319;DHT22;10317;47.254;11.314;2022-10-16T01:39:39;9.80;99.90
20319;DHT22;10317;47.254;11.314;2022-10-16T01:42:29;9.80;99.90
20319;DHT22;10317;47.254;11.314;2022-10-16T01:44:59;9.80;99.90
20319;DHT22;10317;47.254;11.314;2022-10-16T01:47:25;9.80;99.90
20319;DHT22;10317;47.254;11.314;2022-10-16T01:49:52;9.80;99.90
20319;DHT22;10317;47.254;11.314;2022-10-16T01:52:21;9.80;99.90
20319;DHT22;10317;47.254;11.314;2022-10-16T01:54:50;9.80;99.90
20319;DHT22;10317;47.254;11.314;2022-10-16T01:57:18;9.80;99.90
20319;DHT22;10317;47.254;11.314;2022-10-16T01:59:48;9.80;99.90
20319;DHT22;10317;47.254;11.314;2022-10-16T02:02:17;9.80;99.90
20319;DHT22;10317;47.254;11.314;2022-10-16T02:04:47;9.80;99.90
20319;DHT22;10317;47.254;11.314;2022-10-16T02:07:15;9.80;99.90
20319;DHT22;10317;47.254;11.314;2022-10-16T02:09:42;9.80;99.90
20319;DHT22;10317;47.254;11.314;2022-10-16T02:12:15;9.90;99.90
20319;DHT22;10317;47.254;11.314;2022-10-16T02:14:41;9.90;99.90
20319;DHT22;10317;47.254;11.314;2022-10-16T02:17:17;9.90;99.90
20319;DHT22;10317;47.254;11.314;2022-10-16T02:19:43;9.90;99.90
20319;DHT22;10317;47.254;11.314;2022-10-16T02:22:17;9.90;99.90
20319;DHT22;10317;47.254;11.314;2022-10-16T02:27:42;9.90;99.90
20319;DHT22;10317;47.254;11.314;2022-10-16T02:30:21;9.90;99.90
20319;DHT22;10317;47.254;11.314;2022-10-16T02:32:50;10.00;99.90
20319;DHT22;10317;47.254;11.314;2022-10-16T02:35:19;10.00;99.90
20319;DHT22;10317;47.254;11.314;2022-10-16T02:37:46;10.00;99.90
20319;DHT22;10317;47.254;11.314;2022-10-16T02:40:13;10.00;99.90
20319;DHT22;10317;47.254;11.314;2022-10-16T02:42:40;10.00;99.90
20319;DHT22;10317;47.254;11.314;2022-10-16T02:45:07;9.90;99.90
20319;DHT22;10317;47.254;11.314;2022-10-16T02:47:33;9.90;99.90
20319;DHT22;10317;47.254;11.314;2022-10-16T02:49:59;9.90;99.90
20319;DHT22;10317;47.254;11.314;2022-10-16T02:52:25;9.90;99.90
20319;DHT22;10317;47.254;11.314;2022-10-16T02:54:51;9.90;99.90
20319;DHT22;10317;47.254;11.314;2022-10-16T02:57:17;9.90;99.90
20319;DHT22;10317;47.254;11.314;2022-10-16T02:59:43;9.90;99.90
20319;DHT22;10317;47.254;11.314;2022-10-16T03:02:09;9.90;99.90
20319;DHT22;10317;47.254;11.314;2022-10-16T03:04:35;9.90;99.90
20319;DHT22;10317;47.254;11.314;2022-10-16T03:07:01;9.90;99.90
20319;DHT22;10317;47.254;11.314;2022-10-16T03:09:27;9.90;99.90
20319;DHT22;10317;47.254;11.314;2022-10-16T03:11:52;9.90;99.90
20319;DHT22;10317;47.254;11.314;2022-10-16T03:14:18;10.00;99.90
20319;DHT22;10317;47.254;11.314;2022-10-16T03:16:43;10.00;99.90
20319;DHT22;10317;47.254;11.314;2022-10-16T03:19:09;10.00;99.90
20319;DHT22;10317;47.254;11.314;2022-10-16T03:21:35;10.00;99.90
20319;DHT22;10317;47.254;11.314;2022-10-16T03:24:00;10.00;99.90
20319;DHT22;10317;47.254;11.314;2022-10-16T03:26:26;10.00;99.90
20319;DHT22;10317;47.254;11.314;2022-10-16T03:28:52;10.00;99.90
20319;DHT22;10317;47.254;11.314;2022-10-16T03:31:17;10.00;99.90
20319;DHT22;10317;47.254;11.314;2022-10-16T03:33:43;10.00;99.90
20319;DHT22;10317;47.254;11.314;2022-10-16T03:36:09;10.00;99.90
20319;DHT22;10317;47.254;11.314;2022-10-16T03:38:34;10.00;99.90
20319;DHT22;10317;47.254;11.314;2022-10-16T03:41:00;10.00;99.90
20319;DHT22;10317;47.254;11.314;2022-10-16T03:43:26;10.00;99.90
20319;DHT22;10317;47.254;11.314;2022-10-16T03:45:51;10.00;99.90
20319;DHT22;10317;47.254;11.314;2022-10-16T03:48:20;10.00;99.90
20319;DHT22;10317;47.254;11.314;2022-10-16T03:50:46;10.00;99.90
20319;DHT22;10317;47.254;11.314;2022-10-16T03:53:14;10.10;99.90
20319;DHT22;10317;47.254;11.314;2022-10-16T03:55:41;10.00;99.90
20319;DHT22;10317;47.254;11.314;2022-10-16T03:58:07;10.00;99.90
20319;DHT22;10317;47.254;11.314;2022-10-16T04:00:33;10.10;99.90
20319;DHT22;10317;47.254;11.314;2022-10-16T04:03:00;10.10;99.90
20319;DHT22;10317;47.254;11.314;2022-10-16T04:05:26;10.10;99.90
20319;DHT22;10317;47.254;11.314;2022-10-16T04:07:52;10.00;99.90
20319;DHT22;10317;47.254;11.314;2022-10-16T04:10:17;10.10;99.90
20319;DHT22;10317;47.254;11.314;2022-10-16T04:12:44;10.00;99.90
20319;DHT22;10317;47.254;11.314;2022-10-16T04:15:10;10.00;99.90
20319;DHT22;10317;47.254;11.314;2022-10-16T04:17:36;10.00;99.90
20319;DHT22;10317;47.254;11.314;2022-10-16T04:20:02;10.10;99.90
20319;DHT22;10317;47.254;11.314;2022-10-16T04:22:28;10.10;99.90
20319;DHT22;10317;47.254;11.314;2022-10-16T04:24:53;10.00;99.90
20319;DHT22;10317;47.254;11.314;2022-10-16T04:27:19;10.00;99.90
20319;DHT22;10317;47.254;11.314;2022-10-16T04:29:45;10.00;99.90
20319;DHT22;10317;47.254;11.314;2022-10-16T04:32:10;10.00;99.90
20319;DHT22;10317;47.254;11.314;2022-10-16T04:34:36;10.00;99.90
20319;DHT22;10317;47.254;11.314;2022-10-16T04:37:04;10.00;99.90
20319;DHT22;10317;47.254;11.314;2022-10-16T04:39:30;9.90;99.90
20319;DHT22;10317;47.254;11.314;2022-10-16T04:41:56;9.90;99.90
20319;DHT22;10317;47.254;11.314;2022-10-16T04:44:21;9.90;99.90
20319;DHT22;10317;47.254;11.314;2022-10-16T04:46:49;9.90;99.90
20319;DHT22;10317;47.254;11.314;2022-10-16T04:49:15;10.00;99.90
20319;DHT22;10317;47.254;11.314;2022-10-16T04:51:40;9.90;99.90
20319;DHT22;10317;47.254;11.314;2022-10-16T04:54:06;10.00;99.90
20319;DHT22;10317;47.254;11.314;2022-10-16T04:56:32;10.00;99.90
20319;DHT22;10317;47.254;11.314;2022-10-16T04:58:57;9.90;99.90
20319;DHT22;10317;47.254;11.314;2022-10-16T05:01:23;9.90;99.90
20319;DHT22;10317;47.254;11.314;2022-10-16T05:03:49;9.90;99.90
20319;DHT22;10317;47.254;11.314;2022-10-16T05:06:14;9.90;99.90
20319;DHT22;10317;47.254;11.314;2022-10-16T05:08:40;9.80;99.90
20319;DHT22;10317;47.254;11.314;2022-10-16T05:11:06;9.80;99.90
20319;DHT22;10317;47.254;11.314;2022-10-16T05:13:31;9.70;99.90
20319;DHT22;10317;47.254;11.314;2022-10-16T05:15:57;9.70;99.90
20319;DHT22;10317;47.254;11.314;2022-10-16T05:18:23;9.70;99.90
20319;DHT22;10317;47.254;11.314;2022-10-16T05:20:48;9.70;99.90
20319;DHT22;10317;47.254;11.314;2022-10-16T05:23:14;9.70;99.90
20319;DHT22;10317;47.254;11.314;2022-10-16T05:25:40;9.70;99.90
20319;DHT22;10317;47.254;11.314;2022-10-16T05:28:05;9.60;99.90
20319;DHT22;10317;47.254;11.314;2022-10-16T05:30:31;9.60;99.90
20319;DHT22;10317;47.254;11.314;2022-10-16T05:32:57;9.60;99.90
20319;DHT22;10317;47.254;11.314;2022-10-16T05:35:22;9.60;99.90
20319;DHT22;10317;47.254;11.314;2022-10-16T05:37:48;9.60;99.90
20319;DHT22;10317;47.254;11.314;2022-10-16T05:40:14;9.60;99.90
20319;DHT22;10317;47.254;11.314;2022-10-16T05:42:40;9.60;99.90
20319;DHT22;10317;47.254;11.314;2022-10-16T05:45:09;9.60;99.90
20319;DHT22;10317;47.254;11.314;2022-10-16T05:47:35;9.70;99.90
20319;DHT22;10317;47.254;11.314;2022-10-16T05:50:01;9.70;99.90
20319;DHT22;10317;47.254;11.314;2022-10-16T05:52:27;9.70;99.90
20319;DHT22;10317;47.254;11.314;2022-10-16T05:54:52;9.80;99.90
20319;DHT22;10317;47.254;11.314;2022-10-16T05:57:18;9.80;99.90
20319;DHT22;10317;47.254;11.314;2022-10-16T05:59:44;9.80;99.90
20319;DHT22;10317;47.254;11.314;2022-10-16T06:02:13;9.90;99.90
20319;DHT22;10317;47.254;11.314;2022-10-16T06:04:39;10.00;99.90
20319;DHT22;10317;47.254;11.314;2022-10-16T06:07:05;10.00;99.90
20319;DHT22;10317;47.254;11.314;2022-10-16T06:09:31;10.10;99.90
20319;DHT22;10317;47.254;11.314;2022-10-16T06:11:56;10.10;99.90
20319;DHT22;10317;47.254;11.314;2022-10-16T06:14:22;10.20;99.90
20319;DHT22;10317;47.254;11.314;2022-10-16T06:16:48;10.10;99.90
20319;DHT22;10317;47.254;11.314;2022-10-16T06:19:13;10.20;99.90
20319;DHT22;10317;47.254;11.314;2022-10-16T06:21:40;10.20;99.90
20319;DHT22;10317;47.254;11.314;2022-10-16T06:24:06;10.30;99.90
20319;DHT22;10317;47.254;11.314;2022-10-16T06:26:32;10.30;99.90
20319;DHT22;10317;47.254;11.314;2022-10-16T06:28:59;10.30;99.90
20319;DHT22;10317;47.254;11.314;2022-10-16T06:31:26;10.30;99.90
20319;DHT22;10317;47.254;11.314;2022-10-16T06:33:54;10.30;99.90
20319;DHT22;10317;47.254;11.314;2022-10-16T06:36:22;10.40;99.90
20319;DHT22;10317;47.254;11.314;2022-10-16T06:38:48;10.40;99.90
20319;DHT22;10317;47.254;11.314;2022-10-16T06:41:15;10.30;99.90
20319;DHT22;10317;47.254;11.314;2022-10-16T06:43:41;10.30;99.90
20319;DHT22;10317;47.254;11.314;2022-10-16T06:46:10;10.30;99.90
20319;DHT22;10317;47.254;11.314;2022-10-16T06:48:36;10.20;99.90
20319;DHT22;10317;47.254;11.314;2022-10-16T06:51:12;10.20;99.90
20319;DHT22;10317;47.254;11.314;2022-10-16T06:53:40;10.20;99.90
20319;DHT22;10317;47.254;11.314;2022-10-16T06:56:15;10.20;99.90
20319;DHT22;10317;47.254;11.314;2022-10-16T06:58:41;10.20;99.90
20319;DHT22;10317;47.254;11.314;2022-10-16T07:01:08;10.20;99.90
20319;DHT22;10317;47.254;11.314;2022-10-16T07:03:36;10.20;99.90
20319;DHT22;10317;47.254;11.314;2022-10-16T07:06:05;10.20;99.90
20319;DHT22;10317;47.254;11.314;2022-10-16T07:08:35;10.30;99.90
20319;DHT22;10317;47.254;11.314;2022-10-16T07:11:12;10.30;99.90
20319;DHT22;10317;47.254;11.314;2022-10-16T07:13:40;10.30;99.90
20319;DHT22;10317;47.254;11.314;2022-10-16T07:16:12;10.40;99.90
20319;DHT22;10317;47.254;11.314;2022-10-16T07:18:37;10.40;99.90
20319;DHT22;10317;47.254;11.314;2022-10-16T07:21:07;10.40;99.90
20319;DHT22;10317;47.254;11.314;2022-10-16T07:23:33;10.40;99.90
20319;DHT22;10317;47.254;11.314;2022-10-16T07:25:59;10.50;99.90
20319;DHT22;10317;47.254;11.314;2022-10-16T07:28:25;10.50;99.90
20319;DHT22;10317;47.254;11.314;2022-10-16T07:30:50;10.60;99.90
20319;DHT22;10317;47.254;11.314;2022-10-16T07:33:16;10.60;99.90
20319;DHT22;10317;47.254;11.314;2022-10-16T07:35:52;10.60;99.90
20319;DHT22;10317;47.254;11.314;2022-10-16T07:38:18;10.70;99.90
20319;DHT22;10317;47.254;11.314;2022-10-16T07:40:44;10.70;99.90
20319;DHT22;10317;47.254;11.314;2022-10-16T07:43:10;10.80;99.90
20319;DHT22;10317;47.254;11.314;2022-10-16T07:45:36;10.80;99.90
20319;DHT22;10317;47.254;11.314;2022-10-16T07:48:05;11.00;99.90
20319;DHT22;10317;47.254;11.314;2022-10-16T07:50:31;11.30;99.90
20319;DHT22;10317;47.254;11.314;2022-10-16T07:52:56;11.70;99.90
20319;DHT22;10317;47.254;11.314;2022-10-16T07:55:22;12.30;99.90
20319;DHT22;10317;47.254;11.314;2022-10-16T07:57:48;13.20;99.90
20319;DHT22;10317;47.254;11.314;2022-10-16T08:00:13;14.20;99.90
20319;DHT22;10317;47.254;11.314;2022-10-16T08:02:40;15.30;99.90
20319;DHT22;10317;47.254;11.314;2022-10-16T08:05:06;16.40;99.90
20319;DHT22;10317;47.254;11.314;2022-10-16T08:07:32;17.40;99.90
20319;DHT22;10317;47.254;11.314;2022-10-16T08:09:58;17.80;99.90
20319;DHT22;10317;47.254;11.314;2022-10-16T08:12:26;17.50;99.90
20319;DHT22;10317;47.254;11.314;2022-10-16T08:14:51;17.20;99.90
20319;DHT22;10317;47.254;11.314;2022-10-16T08:17:17;16.60;99.90
20319;DHT22;10317;47.254;11.314;2022-10-16T08:19:46;16.40;99.90
20319;DHT22;10317;47.254;11.314;2022-10-16T08:22:15;16.10;99.90
20319;DHT22;10317;47.254;11.314;2022-10-16T08:24:41;15.90;99.90
20319;DHT22;10317;47.254;11.314;2022-10-16T08:27:07;15.70;99.90
20319;DHT22;10317;47.254;11.314;2022-10-16T08:29:34;15.70;99.90
20319;DHT22;10317;47.254;11.314;2022-10-16T08:32:00;15.70;99.90
20319;DHT22;10317;47.254;11.314;2022-10-16T08:34:25;15.80;99.90
20319;DHT22;10317;47.254;11.314;2022-10-16T08:36:53;15.90;99.90
20319;DHT22;10317;47.254;11.314;2022-10-16T08:39:19;15.80;99.90
20319;DHT22;10317;47.254;11.314;2022-10-16T08:42:23;15.80;99.90
20319;DHT22;10317;47.254;11.314;2022-10-16T08:50:24;15.20;99.90
20319;DHT22;10317;47.254;11.314;2022-10-16T08:52:51;15.10;99.90
20319;DHT22;10317;47.254;11.314;2022-10-16T08:55:38;15.40;99.90
20319;DHT22;10317;47.254;11.314;2022-10-16T08:58:18;16.10;99.90
20319;DHT22;10317;47.254;11.314;2022-10-16T09:00:51;16.60;99.90
20319;DHT22;10317;47.254;11.314;2022-10-16T09:03:29;17.00;99.90
20319;DHT22;10317;47.254;11.314;2022-10-16T09:11:24;17.20;99.90
20319;DHT22;10317;47.254;11.314;2022-10-16T09:14:01;17.10;99.90
20319;DHT22;10317;47.254;11.314;2022-10-16T09:16:44;17.20;99.90
20319;DHT22;10317;47.254;11.314;2022-10-16T09:19:16;17.30;99.90
20319;DHT22;10317;47.254;11.314;2022-10-16T09:21:45;17.20;99.90
20319;DHT22;10317;47.254;11.314;2022-10-16T09:24:18;17.20;99.90
20319;DHT22;10317;47.254;11.314;2022-10-16T09:26:45;17.20;99.90
20319;DHT22;10317;47.254;11.314;2022-10-16T09:29:15;17.40;99.90
20319;DHT22;10317;47.254;11.314;2022-10-16T09:31:41;17.30;99.90
20319;DHT22;10317;47.254;11.314;2022-10-16T09:34:25;17.60;99.90
20319;DHT22;10317;47.254;11.314;2022-10-16T09:36:53;17.70;99.90
20319;DHT22;10317;47.254;11.314;2022-10-16T09:39:19;17.90;99.90
20319;DHT22;10317;47.254;11.314;2022-10-16T09:41:45;18.10;99.90
20319;DHT22;10317;47.254;11.314;2022-10-16T09:44:28;18.30;99.90
20319;DHT22;10317;47.254;11.314;2022-10-16T09:49:27;18.60;99.90
20319;DHT22;10317;47.254;11.314;2022-10-16T09:52:14;18.50;99.90
20319;DHT22;10317;47.254;11.314;2022-10-16T09:55:13;18.60;99.90
20319;DHT22;10317;47.254;11.314;2022-10-16T09:57:52;18.80;99.90
20319;DHT22;10317;47.254;11.314;2022-10-16T10:00:18;18.90;99.90
20319;DHT22;10317;47.254;11.314;2022-10-16T10:02:45;18.60;98.60
20319;DHT22;10317;47.254;11.314;2022-10-16T10:07:46;18.70;99.90
20319;DHT22;10317;47.254;11.314;2022-10-16T10:10:26;18.80;99.90
20319;DHT22;10317;47.254;11.314;2022-10-16T10:12:53;18.90;99.90
20319;DHT22;10317;47.254;11.314;2022-10-16T10:15:20;18.90;99.90
20319;DHT22;10317;47.254;11.314;2022-10-16T10:17:53;18.70;99.90
20319;DHT22;10317;47.254;11.314;2022-10-16T10:22:51;18.90;99.90
20319;DHT22;10317;47.254;11.314;2022-10-16T10:25:32;18.80;99.90
20319;DHT22;10317;47.254;11.314;2022-10-16T10:36:40;18.90;99.90
20319;DHT22;10317;47.254;11.314;2022-10-16T10:39:25;19.00;99.90
20319;DHT22;10317;47.254;11.314;2022-10-16T10:42:41;19.00;99.90
20319;DHT22;10317;47.254;11.314;2022-10-16T10:45:26;19.10;99.70
20319;DHT22;10317;47.254;11.314;2022-10-16T10:50:55;19.40;99.90
20319;DHT22;10317;47.254;11.314;2022-10-16T11:01:26;19.80;99.90
20319;DHT22;10317;47.254;11.314;2022-10-16T11:09:38;20.00;99.70
20319;DHT22;10317;47.254;11.314;2022-10-16T11:12:21;20.00;99.60
20319;DHT22;10317;47.254;11.314;2022-10-16T11:22:43;20.30;99.00
20319;DHT22;10317;47.254;11.314;2022-10-16T11:25:22;20.40;98.20
20319;DHT22;10317;47.254;11.314;2022-10-16T11:27:50;20.50;97.90
20319;DHT22;10317;47.254;11.314;2022-10-16T11:35:57;20.70;97.50
20319;DHT22;10317;47.254;11.314;2022-10-16T11:38:45;20.80;96.80
20319;DHT22;10317;47.254;11.314;2022-10-16T11:41:24;20.80;97.70
20319;DHT22;10317;47.254;11.314;2022-10-16T11:46:40;20.80;97.20
20319;DHT22;10317;47.254;11.314;2022-10-16T11:49:19;20.90;97.40
20319;DHT22;10317;47.254;11.314;2022-10-16T11:52:05;21.00;97.60
20319;DHT22;10317;47.254;11.314;2022-10-16T11:57:57;21.10;97.50
20319;DHT22;10317;47.254;11.314;2022-10-16T12:00:34;21.00;97.50
20319;DHT22;10317;47.254;11.314;2022-10-16T12:03:22;21.00;98.00
20319;DHT22;10317;47.254;11.314;2022-10-16T12:08:20;20.90;97.80
20319;DHT22;10317;47.254;11.314;2022-10-16T12:10:47;20.90;97.70
20319;DHT22;10317;47.254;11.314;2022-10-16T12:13:34;20.90;97.70
20319;DHT22;10317;47.254;11.314;2022-10-16T12:18:43;21.00;97.90
20319;DHT22;10317;47.254;11.314;2022-10-16T12:21:10;21.10;97.80
20319;DHT22;10317;47.254;11.314;2022-10-16T12:26:25;21.20;98.10
20319;DHT22;10317;47.254;11.314;2022-10-16T12:28:52;21.20;97.50
20319;DHT22;10317;47.254;11.314;2022-10-16T12:31:18;21.30;96.80
20319;DHT22;10317;47.254;11.314;2022-10-16T12:33:59;21.40;97.50
20319;DHT22;10317;47.254;11.314;2022-10-16T12:36:29;21.40;95.60
20319;DHT22;10317;47.254;11.314;2022-10-16T12:38:55;21.30;95.20
20319;DHT22;10317;47.254;11.314;2022-10-16T12:41:35;21.40;95.10
20319;DHT22;10317;47.254;11.314;2022-10-16T12:44:03;21.40;96.40
20319;DHT22;10317;47.254;11.314;2022-10-16T12:51:39;21.50;95.60
20319;DHT22;10317;47.254;11.314;2022-10-16T12:54:21;21.60;95.80
20319;DHT22;10317;47.254;11.314;2022-10-16T13:05:38;21.50;95.80
20319;DHT22;10317;47.254;11.314;2022-10-16T13:24:55;21.10;96.50
20319;DHT22;10317;47.254;11.314;2022-10-16T13:28:27;21.10;96.40
20319;DHT22;10317;47.254;11.314;2022-10-16T13:30:20;21.00;97.60
20319;DHT22;10317;47.254;11.314;2022-10-16T13:33:34;20.80;97.10
20319;DHT22;10317;47.254;11.314;2022-10-16T13:35:35;20.80;97.70
20319;DHT22;10317;47.254;11.314;2022-10-16T13:38:12;20.80;97.60
20319;DHT22;10317;47.254;11.314;2022-10-16T13:43:14;20.70;97.80
20319;DHT22;10317;47.254;11.314;2022-10-16T13:45:39;20.60;98.20
20319;DHT22;10317;47.254;11.314;2022-10-16T13:48:09;20.50;98.40
20319;DHT22;10317;47.254;11.314;2022-10-16T13:50:35;20.50;98.60
20319;DHT22;10317;47.254;11.314;2022-10-16T13:53:13;20.50;98.70
20319;DHT22;10317;47.254;11.314;2022-10-16T13:55:39;20.30;98.30
20319;DHT22;10317;47.254;11.314;2022-10-16T13:58:12;20.30;98.50
20319;DHT22;10317;47.254;11.314;2022-10-16T14:00:38;20.20;98.20
20319;DHT22;10317;47.254;11.314;2022-10-16T14:03:11;20.20;97.90
20319;DHT22;10317;47.254;11.314;2022-10-16T14:05:49;20.10;98.20
20319;DHT22;10317;47.254;11.314;2022-10-16T14:08:15;20.10;98.30
20319;DHT22;10317;47.254;11.314;2022-10-16T14:10:41;20.00;98.00
20319;DHT22;10317;47.254;11.314;2022-10-16T14:13:12;20.00;97.80
20319;DHT22;10317;47.254;11.314;2022-10-16T14:15:39;19.80;98.00
20319;DHT22;10317;47.254;11.314;2022-10-16T14:18:05;19.80;97.90
20319;DHT22;10317;47.254;11.314;2022-10-16T14:20:33;19.80;97.90
20319;DHT22;10317;47.254;11.314;2022-10-16T14:23:18;19.70;98.10
20319;DHT22;10317;47.254;11.314;2022-10-16T14:25:45;19.70;98.00
20319;DHT22;10317;47.254;11.314;2022-10-16T14:28:20;19.60;97.80
20319;DHT22;10317;47.254;11.314;2022-10-16T14:30:53;19.40;97.90
20319;DHT22;10317;47.254;11.314;2022-10-16T14:36:24;19.20;98.90
20319;DHT22;10317;47.254;11.314;2022-10-16T14:39:17;19.10;98.60
20319;DHT22;10317;47.254;11.314;2022-10-16T14:41:47;19.00;99.00
20319;DHT22;10317;47.254;11.314;2022-10-16T14:44:13;18.80;99.60
20319;DHT22;10317;47.254;11.314;2022-10-16T14:46:43;18.70;99.70
20319;DHT22;10317;47.254;11.314;2022-10-16T14:51:36;18.40;99.90
20319;DHT22;10317;47.254;11.314;2022-10-16T14:54:02;18.30;99.90
20319;DHT22;10317;47.254;11.314;2022-10-16T14:56:46;18.20;99.90
20319;DHT22;10317;47.254;11.314;2022-10-16T14:59:51;18.20;99.90
20319;DHT22;10317;47.254;11.314;2022-10-16T15:04:48;17.90;99.90
20319;DHT22;10317;47.254;11.314;2022-10-16T15:07:14;17.80;99.90
20319;DHT22;10317;47.254;11.314;2022-10-16T15:09:40;17.70;99.90
20319;DHT22;10317;47.254;11.314;2022-10-16T15:12:05;17.70;99.90
20319;DHT22;10317;47.254;11.314;2022-10-16T15:14:31;17.60;99.90
20319;DHT22;10317;47.254;11.314;2022-10-16T15:16:57;17.40;99.90
20319;DHT22;10317;47.254;11.314;2022-10-16T15:19:23;17.30;99.90
20319;DHT22;10317;47.254;11.314;2022-10-16T15:21:48;17.20;99.90
20319;DHT22;10317;47.254;11.314;2022-10-16T15:24:15;17.10;99.90
20319;DHT22;10317;47.254;11.314;2022-10-16T15:26:41;17.00;99.90
20319;DHT22;10317;47.254;11.314;2022-10-16T15:29:07;16.90;99.90
20319;DHT22;10317;47.254;11.314;2022-10-16T15:31:33;16.90;99.90
20319;DHT22;10317;47.254;11.314;2022-10-16T15:33:59;16.70;99.90
20319;DHT22;10317;47.254;11.314;2022-10-16T15:36:33;16.70;99.90
20319;DHT22;10317;47.254;11.314;2022-10-16T15:39:13;16.60;99.90
20319;DHT22;10317;47.254;11.314;2022-10-16T15:41:39;16.60;99.90
20319;DHT22;10317;47.254;11.314;2022-10-16T15:44:04;16.40;99.90
20319;DHT22;10317;47.254;11.314;2022-10-16T15:46:30;16.40;99.90
20319;DHT22;10317;47.254;11.314;2022-10-16T15:48:58;16.30;99.90
20319;DHT22;10317;47.254;11.314;2022-10-16T15:51:24;16.20;99.90
20319;DHT22;10317;47.254;11.314;2022-10-16T15:53:50;16.10;99.90
20319;DHT22;10317;47.254;11.314;2022-10-16T15:56:16;16.00;99.90
20319;DHT22;10317;47.254;11.314;2022-10-16T15:58:43;15.90;99.90
20319;DHT22;10317;47.254;11.314;2022-10-16T16:01:09;15.80;99.90
20319;DHT22;10317;47.254;11.314;2022-10-16T16:03:37;15.80;99.90
20319;DHT22;10317;47.254;11.314;2022-10-16T16:06:10;15.70;99.90
20319;DHT22;10317;47.254;11.314;2022-10-16T16:08:36;15.60;99.90
20319;DHT22;10317;47.254;11.314;2022-10-16T16:11:08;15.50;99.90
20319;DHT22;10317;47.254;11.314;2022-10-16T16:13:34;15.50;99.90
20319;DHT22;10317;47.254;11.314;2022-10-16T16:16:05;15.40;99.90
20319;DHT22;10317;47.254;11.314;2022-10-16T16:18:32;15.30;99.90
20319;DHT22;10317;47.254;11.314;2022-10-16T16:20:58;15.20;99.90
20319;DHT22;10317;47.254;11.314;2022-10-16T16:23:23;15.10;99.90
20319;DHT22;10317;47.254;11.314;2022-10-16T16:26:23;15.10;99.90
20319;DHT22;10317;47.254;11.314;2022-10-16T16:28:52;15.00;99.90
20319;DHT22;10317;47.254;11.314;2022-10-16T16:31:18;14.90;99.90
20319;DHT22;10317;47.254;11.314;2022-10-16T16:33:44;14.80;99.90
20319;DHT22;10317;47.254;11.314;2022-10-16T16:36:10;14.70;99.90
20319;DHT22;10317;47.254;11.314;2022-10-16T16:38:35;14.70;99.90
20319;DHT22;10317;47.254;11.314;2022-10-16T16:41:15;14.60;99.90
20319;DHT22;10317;47.254;11.314;2022-10-16T16:43:41;14.50;99.90
20319;DHT22;10317;47.254;11.314;2022-10-16T16:46:07;14.40;99.90
20319;DHT22;10317;47.254;11.314;2022-10-16T16:48:34;14.30;99.90
20319;DHT22;10317;47.254;11.314;2022-10-16T16:51:05;14.30;99.90
20319;DHT22;10317;47.254;11.314;2022-10-16T16:53:33;14.20;99.90
20319;DHT22;10317;47.254;11.314;2022-10-16T16:56:04;14.20;99.90
20319;DHT22;10317;47.254;11.314;2022-10-16T16:58:31;14.10;99.90
20319;DHT22;10317;47.254;11.314;2022-10-16T17:00:57;14.10;99.90
20319;DHT22;10317;47.254;11.314;2022-10-16T17:03:35;14.00;99.90
20319;DHT22;10317;47.254;11.314;2022-10-16T17:06:07;13.90;99.90
20319;DHT22;10317;47.254;11.314;2022-10-16T17:08:36;13.90;99.90
20319;DHT22;10317;47.254;11.314;2022-10-16T17:11:02;13.80;99.90
20319;DHT22;10317;47.254;11.314;2022-10-16T17:13:30;13.80;99.90
20319;DHT22;10317;47.254;11.314;2022-10-16T17:15:56;13.70;99.90
20319;DHT22;10317;47.254;11.314;2022-10-16T17:18:23;13.60;99.90
20319;DHT22;10317;47.254;11.314;2022-10-16T17:20:49;13.60;99.90
20319;DHT22;10317;47.254;11.314;2022-10-16T17:23:17;13.60;99.90
20319;DHT22;10317;47.254;11.314;2022-10-16T17:25:43;13.50;99.90
20319;DHT22;10317;47.254;11.314;2022-10-16T17:28:10;13.50;99.90
20319;DHT22;10317;47.254;11.314;2022-10-16T17:30:38;13.50;99.90
20319;DHT22;10317;47.254;11.314;2022-10-16T17:33:04;13.50;99.90
20319;DHT22;10317;47.254;11.314;2022-10-16T17:35:39;13.40;99.90